createdAt,value
2018-02-07T00:22:11.548Z,19.40
2018-02-07T00:24:39.072Z,20.67
2018-02-07T00:27:06.591Z,19.67
2018-02-07T00:29:34.110Z,20.93
2018-02-07T00:32:01.630Z,21.30
2018-02-07T00:34:29.143Z,21.13
2018-02-07T00:36:56.672Z,21.87
2018-02-07T00:39:24.193Z,22.03
2018-02-07T00:41:51.721Z,22.43
2018-02-07T00:44:19.253Z,22.50
2018-02-07T00:46:46.776Z,22.27
2018-02-07T00:49:14.313Z,21.87
2018-02-07T00:51:41.846Z,22.43
2018-02-07T00:54:09.366Z,21.03
2018-02-07T00:56:36.905Z,22.97
2018-02-07T00:59:04.424Z,21.67
2018-02-07T01:01:31.939Z,22.13
2018-02-07T01:03:59.457Z,22.13
2018-02-07T01:06:26.985Z,22.53
2018-02-07T01:08:54.545Z,21.83
2018-02-07T01:11:22.073Z,22.53
2018-02-07T01:13:49.624Z,23.07
2018-02-07T01:16:17.153Z,24.23
2018-02-07T01:18:44.688Z,23.63
2018-02-07T01:21:12.207Z,23.87
2018-02-07T01:23:39.724Z,22.83
2018-02-07T01:26:07.241Z,23.00
2018-02-07T01:28:34.780Z,23.67
2018-02-07T01:31:02.301Z,24.27
2018-02-07T01:33:29.829Z,23.63
2018-02-07T01:35:57.362Z,22.87
2018-02-07T01:38:24.877Z,24.47
2018-02-07T01:40:52.395Z,22.57
2018-02-07T01:43:19.914Z,24.37
2018-02-07T01:45:47.444Z,23.47
2018-02-07T01:48:14.974Z,24.57
2018-02-07T01:50:42.500Z,24.37
2018-02-07T01:53:10.021Z,24.23
2018-02-07T01:55:37.547Z,25.67
2018-02-07T01:58:05.079Z,23.97
2018-02-07T02:00:32.704Z,25.03
2018-02-07T02:03:00.227Z,23.60
2018-02-07T02:05:27.767Z,25.17
2018-02-07T02:07:55.281Z,25.40
2018-02-07T02:10:22.795Z,26.13
2018-02-07T02:12:50.318Z,25.53
2018-02-07T02:15:17.842Z,25.67
2018-02-07T02:17:45.360Z,24.97
2018-02-07T02:20:12.880Z,25.70
2018-02-07T02:22:40.412Z,25.63
2018-02-07T02:25:07.929Z,25.70
2018-02-07T02:27:35.454Z,25.63
2018-02-07T02:30:02.977Z,26.60
2018-02-07T02:32:30.507Z,27.20
2018-02-07T02:34:58.030Z,26.97
2018-02-07T02:37:25.553Z,26.93
2018-02-07T02:39:53.084Z,26.17
2018-02-07T02:42:20.602Z,27.57
2018-02-07T02:44:48.140Z,26.40
2018-02-07T02:47:15.768Z,26.50
2018-02-07T02:49:43.290Z,27.20
2018-02-07T02:52:10.815Z,27.40
2018-02-07T02:54:38.342Z,27.27
2018-02-07T02:57:05.868Z,27.20
2018-02-07T02:59:33.388Z,28.03
2018-02-07T03:02:00.921Z,27.10
2018-02-07T03:04:28.445Z,27.10
2018-02-07T03:06:55.972Z,27.53
2018-02-07T03:09:23.498Z,27.80
2018-02-07T03:11:51.015Z,27.50
2018-02-07T03:14:18.541Z,26.17
2018-02-07T03:16:46.072Z,26.17
2018-02-07T03:19:13.592Z,27.47
2018-02-07T03:21:41.147Z,27.00
2018-02-07T03:24:08.686Z,29.30
2018-02-07T03:26:36.210Z,27.20
2018-02-07T03:29:03.729Z,26.03
2018-02-07T03:31:31.266Z,28.07
2018-02-07T03:33:58.788Z,27.93
2018-02-07T03:36:26.309Z,28.43
2018-02-07T03:38:53.839Z,28.77
2018-02-07T03:41:21.371Z,28.57
2018-02-07T03:43:48.884Z,28.17
2018-02-07T03:46:16.419Z,27.93
2018-02-07T03:48:43.931Z,29.20
2018-02-07T03:51:11.458Z,28.43
2018-02-07T03:53:38.995Z,26.33
2018-02-07T03:56:06.507Z,27.73
2018-02-07T03:58:34.019Z,26.90
2018-02-07T04:01:01.544Z,27.50
2018-02-07T04:03:29.058Z,27.53
2018-02-07T04:05:56.586Z,27.97
2018-02-07T04:08:24.106Z,27.53
2018-02-07T04:10:51.632Z,27.30
2018-02-07T04:13:19.172Z,27.60
2018-02-07T04:15:46.697Z,27.67
2018-02-07T04:18:14.217Z,28.13
2018-02-07T04:20:41.750Z,28.00
2018-02-07T04:23:09.270Z,26.73
2018-02-07T04:25:36.799Z,27.17
2018-02-07T04:28:04.325Z,26.93
2018-02-07T04:30:31.876Z,27.17
2018-02-07T04:32:59.409Z,27.60
2018-02-07T04:35:26.976Z,28.07
2018-02-07T04:37:54.483Z,28.40
2018-02-07T04:40:22.025Z,27.80
2018-02-07T04:42:49.547Z,28.63
2018-02-07T04:45:17.076Z,28.60
2018-02-07T04:47:44.613Z,28.67
2018-02-07T04:50:12.132Z,27.87
2018-02-07T04:52:39.654Z,28.53
2018-02-07T04:55:07.185Z,28.80
2018-02-07T04:57:34.702Z,28.33
2018-02-07T05:00:02.234Z,28.67
2018-02-07T05:02:29.760Z,28.40
2018-02-07T05:04:57.272Z,30.10
2018-02-07T05:07:24.796Z,30.47
2018-02-07T05:09:52.344Z,28.57
2018-02-07T05:12:19.871Z,30.93
2018-02-07T05:14:47.409Z,29.93
2018-02-07T05:17:14.929Z,29.87
2018-02-07T05:19:42.462Z,30.50
2018-02-07T05:22:09.977Z,28.57
2018-02-07T05:24:37.505Z,30.60
2018-02-07T05:27:05.036Z,28.67
2018-02-07T05:29:32.595Z,29.83
2018-02-07T05:32:00.124Z,30.70
2018-02-07T05:34:27.648Z,29.87
2018-02-07T05:36:55.195Z,29.93
2018-02-07T05:39:22.778Z,27.93
2018-02-07T05:41:50.289Z,29.67
2018-02-07T05:44:17.811Z,29.40
2018-02-07T05:46:45.340Z,28.07
2018-02-07T05:49:12.866Z,28.93
2018-02-07T05:51:40.390Z,30.87
2018-02-07T05:54:07.913Z,29.93
2018-02-07T05:56:35.476Z,30.43
2018-02-07T05:59:02.994Z,31.80
2018-02-07T06:01:30.532Z,31.43
2018-02-07T06:03:58.052Z,30.90
2018-02-07T06:06:25.584Z,31.03
2018-02-07T06:08:53.152Z,29.90
2018-02-07T06:11:20.733Z,31.03
2018-02-07T06:13:48.259Z,31.03
2018-02-07T06:16:15.791Z,29.07
2018-02-07T06:18:43.323Z,28.10
2018-02-07T06:21:10.861Z,31.10
2018-02-07T06:23:38.391Z,28.90
2018-02-07T06:26:05.924Z,30.67
2018-02-07T06:28:33.448Z,30.57
2018-02-07T06:31:00.975Z,31.10
2018-02-07T06:33:28.502Z,30.07
2018-02-07T06:35:56.021Z,31.83
2018-02-07T06:38:23.548Z,31.47
2018-02-07T06:40:51.077Z,29.03
2018-02-07T06:43:18.598Z,28.93
2018-02-07T06:45:46.127Z,31.87
2018-02-07T06:48:13.656Z,32.43
2018-02-07T06:50:41.728Z,32.70
2018-02-07T06:53:09.248Z,31.43
2018-02-07T06:55:36.785Z,32.63
2018-02-07T06:58:04.346Z,32.53
2018-02-07T07:00:31.893Z,31.17
2018-02-07T07:02:59.426Z,31.67
2018-02-07T07:05:26.940Z,32.37
2018-02-07T07:07:54.471Z,32.67
2018-02-07T07:10:22.001Z,31.93
2018-02-07T07:12:49.523Z,31.70
2018-02-07T07:15:17.046Z,31.53
2018-02-07T07:17:44.580Z,31.77
2018-02-07T07:20:12.195Z,32.37
2018-02-07T07:22:39.707Z,32.77
2018-02-07T07:25:07.240Z,33.17
2018-02-07T07:27:34.772Z,31.60
2018-02-07T07:30:02.303Z,31.97
2018-02-07T07:32:29.824Z,33.70
2018-02-07T07:34:57.350Z,32.57
2018-02-07T07:37:24.881Z,32.57
2018-02-07T07:39:52.410Z,34.77
2018-02-07T07:42:19.932Z,32.93
2018-02-07T07:44:47.460Z,32.87
2018-02-07T07:47:14.984Z,34.17
2018-02-07T07:49:42.514Z,34.43
2018-02-07T07:52:10.069Z,34.97
2018-02-07T07:54:37.604Z,34.13
2018-02-07T07:57:05.121Z,36.33
2018-02-07T07:59:32.640Z,35.50
2018-02-07T08:02:00.173Z,35.67
2018-02-07T08:04:27.700Z,36.97
2018-02-07T08:06:55.222Z,35.57
2018-02-07T08:09:22.748Z,35.97
2018-02-07T08:11:50.276Z,37.60
2018-02-07T08:14:17.792Z,35.67
2018-02-07T08:16:45.325Z,37.83
2018-02-07T08:19:12.856Z,38.03
2018-02-07T08:21:40.375Z,37.90
2018-02-07T08:24:07.903Z,37.87
2018-02-07T08:26:35.432Z,37.13
2018-02-07T08:29:02.997Z,36.03
2018-02-07T08:31:30.515Z,38.73
2018-02-07T08:33:58.042Z,37.97
2018-02-07T08:36:25.580Z,39.40
2018-02-07T08:38:53.111Z,40.13
2018-02-07T08:41:20.733Z,38.33
2018-02-07T08:43:48.321Z,39.43
2018-02-07T08:46:15.869Z,39.67
2018-02-07T08:48:43.406Z,38.83
2018-02-07T08:51:10.926Z,37.53
2018-02-07T08:53:38.450Z,39.47
2018-02-07T08:56:05.973Z,37.90
2018-02-07T08:58:33.509Z,40.50
2018-02-07T09:01:01.029Z,40.20
2018-02-07T09:03:28.549Z,41.17
2018-02-07T09:05:56.085Z,40.50
2018-02-07T09:08:23.603Z,40.87
2018-02-07T09:10:51.126Z,41.13
2018-02-07T09:13:18.657Z,41.03
2018-02-07T09:15:46.196Z,41.67
2018-02-07T09:18:13.734Z,42.87
2018-02-07T09:20:41.267Z,41.73
2018-02-07T09:23:08.794Z,42.70
2018-02-07T09:25:36.304Z,41.77
2018-02-07T09:28:03.843Z,43.33
2018-02-07T09:30:31.368Z,44.13
2018-02-07T09:32:58.889Z,43.87
2018-02-07T09:35:26.450Z,45.73
2018-02-07T09:37:54.122Z,41.53
2018-02-07T09:40:21.678Z,43.60
2018-02-07T09:42:49.236Z,42.83
2018-02-07T09:45:16.759Z,43.67
2018-02-07T09:47:44.270Z,44.53
2018-02-07T09:50:11.908Z,44.40
2018-02-07T09:52:39.438Z,43.67
2018-02-07T09:55:07.018Z,45.00
2018-02-07T09:57:34.532Z,46.10
2018-02-07T10:00:02.136Z,46.80
2018-02-07T10:02:29.661Z,48.70
2018-02-07T10:04:57.254Z,48.93
2018-02-07T10:07:24.788Z,53.23
2018-02-07T10:09:52.323Z,50.80
2018-02-07T10:12:19.837Z,51.33
2018-02-07T10:14:47.372Z,48.90
2018-02-07T10:17:14.955Z,50.10
2018-02-07T10:19:42.514Z,50.50
2018-02-07T10:22:10.077Z,50.70
2018-02-07T10:24:37.598Z,47.23
2018-02-07T10:27:05.129Z,49.17
2018-02-07T10:29:32.653Z,47.90
2018-02-07T10:32:00.190Z,46.73
2018-02-07T10:34:27.717Z,48.53
2018-02-07T10:36:55.231Z,48.37
2018-02-07T10:39:22.766Z,48.93
2018-02-07T10:41:50.289Z,48.13
2018-02-07T10:44:17.806Z,48.70
2018-02-07T10:46:45.342Z,47.17
2018-02-07T10:49:12.924Z,44.07
2018-02-07T10:51:40.463Z,44.93
2018-02-07T10:54:08.045Z,43.80
2018-02-07T10:56:35.581Z,46.43
2018-02-07T10:59:03.164Z,47.90
2018-02-07T11:01:30.700Z,46.07
2018-02-07T11:03:58.285Z,45.63
2018-02-07T11:06:25.829Z,44.17
2018-02-07T11:08:53.404Z,44.50
2018-02-07T11:11:20.980Z,43.53
2018-02-07T11:13:48.502Z,45.33
2018-02-07T11:16:16.012Z,45.27
2018-02-07T11:18:43.543Z,46.30
2018-02-07T11:21:11.076Z,46.90
2018-02-07T11:23:40.619Z,49.03
2018-02-07T11:26:08.133Z,48.53
2018-02-07T11:28:35.672Z,50.17
2018-02-07T11:31:03.235Z,48.87
2018-02-07T11:33:30.750Z,49.13
2018-02-07T11:35:58.268Z,47.80
2018-02-07T11:38:25.792Z,46.70
2018-02-07T11:40:53.313Z,48.53
2018-02-07T11:43:20.840Z,48.97
2018-02-07T11:45:48.385Z,47.03
2018-02-07T11:48:15.902Z,48.83
2018-02-07T11:50:43.439Z,47.70
2018-02-07T11:53:10.952Z,43.70
2018-02-07T11:55:38.478Z,41.70
2018-02-07T11:58:06.795Z,40.83
2018-02-07T12:00:34.313Z,41.27
2018-02-07T12:03:01.846Z,43.17
2018-02-07T12:05:29.364Z,42.63
2018-02-07T12:07:56.933Z,41.87
2018-02-07T12:10:24.453Z,42.07
2018-02-07T12:12:51.986Z,40.97
2018-02-07T12:15:19.517Z,39.63
2018-02-07T12:17:47.036Z,39.40
2018-02-07T12:20:15.250Z,40.77
2018-02-07T12:22:42.761Z,39.13
2018-02-07T12:25:10.325Z,38.23
2018-02-07T12:27:37.854Z,40.47
2018-02-07T12:30:05.381Z,36.87
2018-02-07T12:32:33.000Z,36.73
2018-02-07T12:35:00.532Z,38.27
2018-02-07T12:37:28.060Z,37.13
2018-02-07T12:39:55.572Z,37.10
2018-02-07T12:42:23.109Z,38.13
2018-02-07T12:44:50.640Z,38.47
2018-02-07T12:47:18.164Z,38.80
2018-02-07T12:49:45.672Z,37.70
2018-02-07T12:52:13.217Z,38.17
2018-02-07T12:54:40.735Z,37.27
2018-02-07T12:57:08.265Z,37.47
2018-02-07T12:59:35.787Z,35.43
2018-02-07T13:02:03.310Z,37.77
2018-02-07T13:04:30.827Z,35.43
2018-02-07T13:06:58.345Z,34.23
2018-02-07T13:09:25.880Z,35.50
2018-02-07T13:11:53.423Z,36.10
2018-02-07T13:14:20.936Z,36.30
2018-02-07T13:16:48.452Z,33.17
2018-02-07T13:19:15.964Z,34.03
2018-02-07T13:21:43.474Z,32.80
2018-02-07T13:24:11.005Z,29.43
2018-02-07T13:26:38.537Z,33.30
2018-02-07T13:29:06.049Z,29.93
2018-02-07T13:31:33.565Z,32.87
2018-02-07T13:34:01.078Z,31.27
2018-02-07T13:36:28.600Z,34.77
2018-02-07T13:38:56.117Z,33.80
2018-02-07T13:41:23.662Z,28.93
2018-02-07T13:43:51.178Z,29.63
2018-02-07T13:46:18.708Z,31.33
2018-02-07T13:48:46.220Z,33.17
2018-02-07T13:51:13.758Z,34.73
2018-02-07T13:53:41.284Z,34.93
2018-02-07T13:56:08.799Z,30.60
2018-02-07T13:58:36.313Z,33.87
2018-02-07T14:01:03.830Z,33.83
2018-02-07T14:03:31.360Z,32.23
2018-02-07T14:05:58.882Z,30.73
2018-02-07T14:08:26.408Z,30.80
2018-02-07T14:10:53.928Z,29.23
2018-02-07T14:13:21.466Z,29.43
2018-02-07T14:15:48.977Z,29.07
2018-02-07T14:18:16.487Z,28.17
2018-02-07T14:20:43.995Z,29.17
2018-02-07T14:23:11.515Z,27.77
2018-02-07T14:25:39.036Z,28.03
2018-02-07T14:28:06.569Z,28.07
2018-02-07T14:30:34.100Z,28.23
2018-02-07T14:33:01.631Z,26.30
2018-02-07T14:35:29.150Z,23.97
2018-02-07T14:37:56.659Z,26.70
2018-02-07T14:40:24.165Z,26.63
2018-02-07T14:42:51.694Z,24.57
2018-02-07T14:45:19.220Z,23.50
2018-02-07T14:47:46.734Z,23.33
2018-02-07T14:50:14.256Z,21.83
2018-02-07T14:52:41.781Z,23.33
2018-02-07T14:55:09.442Z,21.10
2018-02-07T14:57:36.979Z,19.70
2018-02-07T15:00:04.492Z,21.50
2018-02-07T15:02:32.028Z,19.80
2018-02-07T15:04:59.550Z,19.67
2018-02-07T15:07:27.071Z,21.10
2018-02-07T15:09:54.589Z,17.93
2018-02-07T15:12:22.104Z,18.87
2018-02-07T15:14:49.633Z,20.13
2018-02-07T15:17:17.160Z,19.10
2018-02-07T15:19:44.705Z,19.23
2018-02-07T15:22:12.242Z,17.33
2018-02-07T15:24:39.783Z,16.77
2018-02-07T15:27:07.312Z,17.93
2018-02-07T15:29:34.836Z,18.50
2018-02-07T15:32:02.380Z,18.93
2018-02-07T15:34:29.914Z,20.13
2018-02-07T15:36:57.445Z,20.40
2018-02-07T15:39:24.976Z,20.23
2018-02-07T15:41:52.511Z,21.33
2018-02-07T15:44:20.045Z,22.53
2018-02-07T15:46:47.556Z,23.67
2018-02-07T15:49:15.069Z,25.50
2018-02-07T15:51:42.597Z,24.37
2018-02-07T15:54:10.128Z,25.90
2018-02-07T15:56:37.646Z,26.77
2018-02-07T15:59:05.156Z,27.47
2018-02-07T16:01:32.706Z,27.33
2018-02-07T16:04:00.220Z,26.77
2018-02-07T16:06:27.743Z,27.13
2018-02-07T16:08:55.261Z,27.10
2018-02-07T16:11:22.770Z,26.47
2018-02-07T16:13:50.300Z,28.77
2018-02-07T16:16:17.834Z,27.53
2018-02-07T16:18:45.369Z,26.43
2018-02-07T16:21:12.879Z,26.10
2018-02-07T16:23:40.393Z,26.60
2018-02-07T16:26:07.951Z,26.80
2018-02-07T16:28:35.466Z,26.60
2018-02-07T16:31:02.991Z,26.97
2018-02-07T16:33:30.522Z,26.80
2018-02-07T16:35:58.036Z,26.40
2018-02-07T16:38:25.552Z,26.30
2018-02-07T16:40:53.080Z,24.60
2018-02-07T16:43:20.629Z,26.67
2018-02-07T16:45:48.164Z,28.93
2018-02-07T16:48:15.705Z,27.97
2018-02-07T16:50:43.271Z,25.83
2018-02-07T16:53:10.872Z,25.07
2018-02-07T16:55:38.383Z,25.17
2018-02-07T16:58:05.913Z,24.40
2018-02-07T17:00:33.429Z,24.37
2018-02-07T17:03:00.963Z,23.63
2018-02-07T17:05:28.523Z,23.20
2018-02-07T17:07:56.049Z,24.00
2018-02-07T17:10:23.646Z,23.47
2018-02-07T17:12:51.158Z,23.10
2018-02-07T17:15:18.677Z,25.10
2018-02-07T17:17:46.220Z,25.27
2018-02-07T17:20:13.768Z,25.93
2018-02-07T17:22:41.304Z,26.37
2018-02-07T17:25:08.874Z,26.27
2018-02-07T17:27:36.386Z,26.70
2018-02-07T17:30:03.936Z,24.90
2018-02-07T17:32:31.576Z,24.83
2018-02-07T17:34:59.133Z,24.17
2018-02-07T17:37:26.669Z,23.90
2018-02-07T17:39:54.187Z,23.80
2018-02-07T17:42:21.711Z,21.53
2018-02-07T17:44:49.247Z,22.53
2018-02-07T17:47:16.760Z,23.13
2018-02-07T17:49:44.320Z,22.93
2018-02-07T17:52:11.823Z,23.07
2018-02-07T17:54:39.354Z,23.57
2018-02-07T17:57:06.889Z,25.67
2018-02-07T17:59:34.428Z,23.37
2018-02-07T18:02:02.020Z,24.63
2018-02-07T18:04:30.233Z,25.23
2018-02-07T18:06:57.752Z,23.70
2018-02-07T18:09:25.353Z,26.67
2018-02-07T18:11:52.882Z,25.70
2018-02-07T18:14:20.398Z,30.70
2018-02-07T18:16:47.927Z,26.87
2018-02-07T18:19:15.443Z,28.77
2018-02-07T18:21:42.975Z,28.10
2018-02-07T18:24:10.503Z,28.60
2018-02-07T18:26:38.032Z,28.00
2018-02-07T18:29:05.582Z,28.80
2018-02-07T18:31:33.105Z,28.53
2018-02-07T18:34:01.872Z,30.50
2018-02-07T18:36:29.434Z,32.17
2018-02-07T18:38:56.994Z,33.50
2018-02-07T18:41:24.509Z,34.00
2018-02-07T18:43:52.035Z,34.17
2018-02-07T18:46:19.575Z,35.57
2018-02-07T18:48:47.124Z,37.33
2018-02-07T18:51:14.654Z,39.83
2018-02-07T18:53:42.174Z,47.58
2018-02-07T18:56:09.709Z,42.50
2018-02-07T18:58:37.232Z,41.87
2018-02-07T19:01:04.754Z,42.47
2018-02-07T19:03:32.283Z,42.50
2018-02-07T19:05:59.848Z,42.07
2018-02-07T19:08:27.375Z,42.53
2018-02-07T19:10:54.912Z,44.37
2018-02-07T19:13:22.448Z,42.57
2018-02-07T19:15:50.690Z,43.30
2018-02-07T19:18:18.232Z,42.80
2018-02-07T19:20:45.985Z,44.90
2018-02-07T19:23:20.573Z,44.23
2018-02-07T19:25:49.670Z,43.63
2018-02-07T19:28:22.112Z,41.93
2018-02-07T19:30:49.677Z,43.33
2018-02-07T19:33:17.192Z,44.03
2018-02-07T19:35:44.715Z,43.33
2018-02-07T19:38:12.693Z,42.30
2018-02-07T19:40:40.224Z,41.87
2018-02-07T19:43:07.779Z,40.90
2018-02-07T19:45:35.300Z,43.80
2018-02-07T19:48:02.821Z,41.63
2018-02-07T19:50:30.362Z,42.67
2018-02-07T19:52:57.922Z,40.57
2018-02-07T19:55:25.503Z,42.07
2018-02-07T19:57:54.053Z,42.40
2018-02-07T20:00:22.409Z,41.80
2018-02-07T20:02:49.928Z,43.07
2018-02-07T20:05:18.658Z,41.30
2018-02-07T20:07:46.223Z,41.97
2018-02-07T20:10:14.604Z,43.20
2018-02-07T20:12:42.145Z,44.33
2018-02-07T20:15:09.690Z,44.53
2018-02-07T20:17:37.228Z,45.80
2018-02-07T20:20:05.941Z,45.10
2018-02-07T20:22:33.506Z,45.20
2018-02-07T20:25:01.030Z,44.57
2018-02-07T20:27:28.563Z,45.60
2018-02-07T20:29:56.086Z,46.47
2018-02-07T20:32:23.661Z,47.03
2018-02-07T20:34:51.237Z,44.40
2018-02-07T20:37:18.762Z,47.50
2018-02-07T20:39:46.286Z,49.17
2018-02-07T20:42:13.817Z,50.10
2018-02-07T20:44:41.345Z,48.73
2018-02-07T20:47:08.888Z,50.87
2018-02-07T20:49:36.423Z,49.33
2018-02-07T20:52:03.953Z,51.37
2018-02-07T20:54:31.475Z,49.20
2018-02-07T20:56:59.021Z,50.63
2018-02-07T20:59:26.558Z,50.57
2018-02-07T21:01:54.088Z,52.40
2018-02-07T21:04:21.610Z,52.53
2018-02-07T21:06:49.136Z,52.20
2018-02-07T21:09:16.665Z,53.37
2018-02-07T21:11:44.181Z,52.33
2018-02-07T21:14:11.717Z,52.97
2018-02-07T21:16:39.245Z,53.40
2018-02-07T21:19:06.800Z,51.30
2018-02-07T21:21:34.325Z,52.67
2018-02-07T21:24:01.877Z,49.90
2018-02-07T21:26:29.409Z,52.67
2018-02-07T21:28:57.655Z,49.57
2018-02-07T21:31:25.177Z,51.37
2018-02-07T21:33:52.703Z,49.13
2018-02-07T21:36:20.233Z,51.17
2018-02-07T21:38:47.789Z,51.17
2018-02-07T21:41:15.315Z,51.50
2018-02-07T21:43:42.850Z,48.20
2018-02-07T21:46:10.417Z,50.07
2018-02-07T21:48:37.958Z,49.40
2018-02-07T21:51:05.501Z,50.07
2018-02-07T21:53:33.051Z,49.93
2018-02-07T21:56:00.576Z,49.87
2018-02-07T21:58:28.117Z,48.47
2018-02-07T22:00:55.662Z,49.57
2018-02-07T22:03:23.215Z,51.03
2018-02-07T22:05:50.746Z,50.67
2018-02-07T22:08:18.261Z,51.30
2018-02-07T22:10:45.794Z,51.60
2018-02-07T22:13:13.378Z,50.10
2018-02-07T22:15:40.880Z,50.57
2018-02-07T22:18:08.494Z,51.03
2018-02-07T22:20:36.031Z,51.07
2018-02-07T22:23:03.636Z,48.97
2018-02-07T22:25:31.188Z,52.30
2018-02-07T22:27:59.083Z,51.60
2018-02-07T22:30:26.648Z,50.60
2018-02-07T22:32:54.179Z,51.80
2018-02-07T22:35:21.730Z,50.77
2018-02-07T22:37:49.257Z,51.80
2018-02-07T22:40:16.791Z,51.17
2018-02-07T22:42:44.317Z,52.63
2018-02-07T22:45:11.852Z,52.33
2018-02-07T22:47:39.435Z,50.40
2018-02-07T22:50:06.984Z,53.10
2018-02-07T22:52:34.531Z,54.50
2018-02-07T22:55:02.080Z,51.83
2018-02-07T22:57:29.632Z,52.57
2018-02-07T22:59:57.165Z,52.37
2018-02-07T23:02:24.679Z,52.60
2018-02-07T23:04:52.215Z,53.37
2018-02-07T23:07:19.753Z,52.07
2018-02-07T23:09:47.305Z,54.57
2018-02-07T23:12:14.855Z,52.27
2018-02-07T23:14:42.382Z,51.33
2018-02-07T23:17:09.904Z,52.03
2018-02-07T23:19:37.419Z,52.67
2018-02-07T23:22:04.948Z,52.07
2018-02-07T23:24:32.480Z,51.23
2018-02-07T23:27:00.017Z,54.00
2018-02-07T23:29:27.573Z,54.27
2018-02-07T23:31:55.099Z,52.17
2018-02-07T23:34:22.643Z,50.67
2018-02-07T23:36:50.178Z,52.53
2018-02-07T23:39:17.696Z,52.27
2018-02-07T23:41:45.224Z,49.90
2018-02-07T23:44:12.757Z,53.50
2018-02-07T23:46:40.288Z,52.23
2018-02-07T23:49:07.804Z,51.97
2018-02-07T23:51:35.334Z,51.47
2018-02-07T23:54:02.866Z,52.67
2018-02-07T23:56:30.384Z,50.27
2018-02-07T23:58:57.913Z,51.57
